createdAt,value
2022-11-26T00:02:23.344Z,8.52
2022-11-26T00:04:50.370Z,8.52
2022-11-26T00:07:21.983Z,8.53
2022-11-26T00:09:49.626Z,8.57
2022-11-26T00:12:21.896Z,8.56
2022-11-26T00:14:48.314Z,8.57
2022-11-26T00:17:15.680Z,8.54
2022-11-26T00:19:42.993Z,8.60
2022-11-26T00:22:24.137Z,8.61
2022-11-26T00:24:50.966Z,8.55
2022-11-26T00:27:17.620Z,8.58
2022-11-26T00:29:43.998Z,8.59
2022-11-26T00:32:16.486Z,8.60
2022-11-26T00:34:43.242Z,8.64
2022-11-26T00:37:20.569Z,8.78
2022-11-26T00:39:47.523Z,8.66
2022-11-26T00:42:14.118Z,8.62
2022-11-26T00:44:40.700Z,8.66
2022-11-26T00:47:09.401Z,8.54
2022-11-26T00:49:36.083Z,8.59
2022-11-26T00:52:03.006Z,8.61
2022-11-26T00:54:29.703Z,8.61
2022-11-26T00:56:56.089Z,8.55
2022-11-26T00:59:23.180Z,8.51
2022-11-26T01:01:50.077Z,8.57
2022-11-26T01:04:16.502Z,8.59
2022-11-26T01:06:44.719Z,8.54
2022-11-26T01:09:19.686Z,8.52
2022-11-26T01:11:50.874Z,8.60
2022-11-26T01:14:21.004Z,8.62
2022-11-26T01:16:48.487Z,8.58
2022-11-26T01:19:16.320Z,8.60
2022-11-26T01:21:42.746Z,8.58
2022-11-26T01:24:09.689Z,8.59
2022-11-26T01:26:42.138Z,8.61
2022-11-26T01:29:15.513Z,8.61
2022-11-26T01:31:42.009Z,8.67
2022-11-26T01:34:08.451Z,8.58
2022-11-26T01:36:37.144Z,8.52
2022-11-26T01:39:14.533Z,8.56
2022-11-26T01:42:02.381Z,8.45
2022-11-26T01:44:31.749Z,8.51
2022-11-26T01:46:59.799Z,8.55
2022-11-26T01:49:30.578Z,8.59
2022-11-26T01:52:17.974Z,8.52
2022-11-26T01:54:44.890Z,8.59
2022-11-26T01:57:24.184Z,8.58
2022-11-26T01:59:53.958Z,8.53
2022-11-26T02:02:24.570Z,8.62
2022-11-26T02:05:02.855Z,8.50
2022-11-26T02:07:29.347Z,8.47
2022-11-26T02:09:55.787Z,8.44
2022-11-26T02:12:22.327Z,8.55
2022-11-26T02:14:48.807Z,8.55
2022-11-26T02:17:29.865Z,8.54
2022-11-26T02:20:24.614Z,8.47
2022-11-26T02:23:32.854Z,8.55
2022-11-26T02:26:20.995Z,8.45
2022-11-26T02:29:11.773Z,8.51
2022-11-26T02:31:45.811Z,8.44
2022-11-26T02:34:36.990Z,8.51
2022-11-26T02:37:08.165Z,8.54
2022-11-26T02:39:34.581Z,8.61
2022-11-26T02:42:03.994Z,8.50
2022-11-26T02:44:39.633Z,8.62
2022-11-26T02:47:11.533Z,8.62
2022-11-26T02:49:40.266Z,8.66
2022-11-26T02:52:07.675Z,8.59
2022-11-26T02:54:36.792Z,8.67
2022-11-26T02:57:07.025Z,8.63
2022-11-26T02:59:34.439Z,8.69
2022-11-26T03:02:07.945Z,8.58
2022-11-26T03:04:39.429Z,8.69
2022-11-26T03:07:08.606Z,8.61
2022-11-26T03:09:40.653Z,8.62
2022-11-26T03:12:07.153Z,8.58
2022-11-26T03:14:33.630Z,8.64
2022-11-26T03:17:00.045Z,8.63
2022-11-26T03:19:26.512Z,8.65
2022-11-26T03:21:52.890Z,8.67
2022-11-26T03:24:19.290Z,8.59
2022-11-26T03:26:45.703Z,8.66
2022-11-26T03:29:12.094Z,8.70
2022-11-26T03:31:38.533Z,8.68
2022-11-26T03:34:04.961Z,8.63
2022-11-26T03:36:31.388Z,8.63
2022-11-26T03:38:57.797Z,8.58
2022-11-26T03:41:24.185Z,8.67
2022-11-26T03:43:50.578Z,8.63
2022-11-26T03:46:17.071Z,8.63
2022-11-26T03:48:43.591Z,8.63
2022-11-26T03:51:10.020Z,8.64
2022-11-26T03:53:36.534Z,8.76
2022-11-26T03:56:02.989Z,8.73
2022-11-26T03:58:29.907Z,8.73
2022-11-26T04:00:56.401Z,8.62
2022-11-26T04:03:23.091Z,8.69
2022-11-26T04:05:49.566Z,8.60
2022-11-26T04:08:15.950Z,8.68
2022-11-26T04:10:42.365Z,8.72
2022-11-26T04:13:08.764Z,8.70
2022-11-26T04:15:35.218Z,8.66
2022-11-26T04:18:01.624Z,8.64
2022-11-26T04:20:28.121Z,8.67
2022-11-26T04:22:54.538Z,8.67
2022-11-26T04:25:20.970Z,8.61
2022-11-26T04:27:47.369Z,8.60
2022-11-26T04:30:14.634Z,8.69
2022-11-26T04:32:41.032Z,8.68
2022-11-26T04:35:09.257Z,8.73
2022-11-26T04:37:35.684Z,8.70
2022-11-26T04:40:02.085Z,8.79
2022-11-26T04:42:28.501Z,8.67
2022-11-26T04:44:54.897Z,8.71
2022-11-26T04:47:21.316Z,8.74
2022-11-26T04:49:47.692Z,8.68
2022-11-26T04:52:14.218Z,8.72
2022-11-26T04:54:40.779Z,8.65
2022-11-26T04:57:07.303Z,8.79
2022-11-26T04:59:33.696Z,8.68
2022-11-26T05:02:00.287Z,8.64
2022-11-26T05:04:28.163Z,8.82
2022-11-26T05:06:55.333Z,8.82
2022-11-26T05:09:22.190Z,8.81
2022-11-26T05:11:48.583Z,8.79
2022-11-26T05:14:14.980Z,8.79
2022-11-26T05:16:41.434Z,8.77
2022-11-26T05:19:07.862Z,8.76
2022-11-26T05:21:34.254Z,8.70
2022-11-26T05:24:00.669Z,8.79
2022-11-26T05:26:27.366Z,8.63
2022-11-26T05:28:53.740Z,8.73
2022-11-26T05:31:20.189Z,8.84
2022-11-26T05:33:46.573Z,8.70
2022-11-26T05:36:12.969Z,8.82
2022-11-26T05:38:39.365Z,8.70
2022-11-26T05:41:05.789Z,8.74
2022-11-26T05:43:32.205Z,8.83
2022-11-26T05:46:07.207Z,8.88
2022-11-26T05:48:33.952Z,8.81
2022-11-26T05:51:01.337Z,8.85
2022-11-26T05:53:28.324Z,8.86
2022-11-26T05:55:54.729Z,8.80
2022-11-26T05:58:21.179Z,8.80
2022-11-26T06:00:47.617Z,8.94
2022-11-26T06:03:18.520Z,8.85
2022-11-26T06:05:46.334Z,8.90
2022-11-26T06:08:12.719Z,8.75
2022-11-26T06:10:42.115Z,8.82
2022-11-26T06:13:09.976Z,8.80
2022-11-26T06:15:36.367Z,8.79
2022-11-26T06:18:02.750Z,8.82
2022-11-26T06:20:29.164Z,8.78
2022-11-26T06:22:55.543Z,8.81
2022-11-26T06:25:21.948Z,8.75
2022-11-26T06:27:48.334Z,8.80
2022-11-26T06:30:14.765Z,8.79
2022-11-26T06:32:41.238Z,8.78
2022-11-26T06:35:07.947Z,8.78
2022-11-26T06:37:34.338Z,8.83
2022-11-26T06:40:00.992Z,8.67
2022-11-26T06:42:27.592Z,8.75
2022-11-26T06:44:58.351Z,8.79
2022-11-26T06:47:26.488Z,8.69
2022-11-26T06:49:53.509Z,8.70
2022-11-26T06:52:19.917Z,8.61
2022-11-26T06:54:46.292Z,8.69
2022-11-26T06:57:12.682Z,8.78
2022-11-26T06:59:39.074Z,8.71
2022-11-26T07:02:05.514Z,8.70
2022-11-26T07:04:31.986Z,8.74
2022-11-26T07:06:58.378Z,8.68
2022-11-26T07:09:24.951Z,8.78
2022-11-26T07:11:51.370Z,8.76
2022-11-26T07:14:18.066Z,8.72
2022-11-26T07:16:44.470Z,8.70
2022-11-26T07:19:13.224Z,8.64
2022-11-26T07:21:39.818Z,8.71
2022-11-26T07:24:06.388Z,8.75
2022-11-26T07:26:32.765Z,8.82
2022-11-26T07:28:59.158Z,8.72
2022-11-26T07:31:25.569Z,8.73
2022-11-26T07:33:51.968Z,8.88
2022-11-26T07:36:24.496Z,8.85
2022-11-26T07:38:54.659Z,8.80
2022-11-26T07:41:21.468Z,8.89
2022-11-26T07:43:47.860Z,8.92
2022-11-26T07:46:17.445Z,8.95
2022-11-26T07:48:44.214Z,8.91
2022-11-26T07:51:19.969Z,8.83
2022-11-26T07:53:47.325Z,8.86
2022-11-26T07:56:14.238Z,8.86
2022-11-26T07:58:40.664Z,8.82
2022-11-26T08:01:08.902Z,8.91
2022-11-26T08:03:43.394Z,8.85
2022-11-26T08:06:12.492Z,8.91
2022-11-26T08:08:39.069Z,8.89
2022-11-26T08:11:12.768Z,8.87
2022-11-26T08:13:39.195Z,8.96
2022-11-26T08:16:05.762Z,9.02
2022-11-26T08:18:32.276Z,8.99
2022-11-26T08:20:59.210Z,9.01
2022-11-26T08:23:26.027Z,8.97
2022-11-26T08:26:20.519Z,9.03
2022-11-26T08:28:39.189Z,8.88
2022-11-26T08:31:08.745Z,8.91
2022-11-26T08:33:36.150Z,8.92
2022-11-26T08:36:07.866Z,9.02
2022-11-26T08:38:35.756Z,8.95
2022-11-26T08:41:04.638Z,8.98
2022-11-26T08:43:51.687Z,9.03
2022-11-26T08:46:17.494Z,9.04
2022-11-26T08:48:45.167Z,9.07
2022-11-26T08:51:12.524Z,8.98
2022-11-26T08:53:39.622Z,9.01
2022-11-26T08:56:08.956Z,8.91
2022-11-26T08:58:40.362Z,9.01
2022-11-26T09:01:11.517Z,8.95
2022-11-26T09:03:39.057Z,9.01
2022-11-26T09:06:07.073Z,8.99
2022-11-26T09:08:44.869Z,9.00
2022-11-26T09:11:12.042Z,8.97
2022-11-26T09:13:38.424Z,9.01
2022-11-26T09:16:05.071Z,8.97
2022-11-26T09:18:31.475Z,8.91
2022-11-26T09:21:02.316Z,8.93
2022-11-26T09:23:28.970Z,8.79
2022-11-26T09:25:55.410Z,8.75
2022-11-26T09:28:21.831Z,8.88
2022-11-26T09:30:48.234Z,9.03
2022-11-26T09:33:14.717Z,9.00
2022-11-26T09:35:41.285Z,8.99
2022-11-26T09:38:07.893Z,8.86
2022-11-26T09:40:54.704Z,8.98
2022-11-26T09:43:33.512Z,8.98
2022-11-26T09:46:01.370Z,9.14
2022-11-26T09:48:30.692Z,9.09
2022-11-26T09:51:07.046Z,9.02
2022-11-26T09:53:37.718Z,9.01
2022-11-26T09:56:06.630Z,8.98
2022-11-26T09:59:02.292Z,9.02
2022-11-26T10:01:31.121Z,9.04
2022-11-26T10:03:58.258Z,9.02
2022-11-26T10:06:40.814Z,9.01
2022-11-26T10:09:21.647Z,8.85
2022-11-26T10:11:54.039Z,8.80
2022-11-26T10:14:47.777Z,8.93
2022-11-26T10:17:40.891Z,8.75
2022-11-26T10:20:40.818Z,8.84
2022-11-26T10:23:12.996Z,8.84
2022-11-26T10:25:43.322Z,8.90
2022-11-26T10:28:21.148Z,8.86
2022-11-26T10:31:02.592Z,8.88
2022-11-26T10:33:34.220Z,8.75
2022-11-26T10:36:00.871Z,8.74
2022-11-26T10:38:27.270Z,8.82
2022-11-26T10:40:53.661Z,8.76
2022-11-26T10:43:24.450Z,8.87
2022-11-26T10:45:53.942Z,8.89
2022-11-26T10:48:24.555Z,8.91
2022-11-26T10:51:15.310Z,8.95
2022-11-26T10:53:59.886Z,9.01
2022-11-26T10:56:35.938Z,8.99
2022-11-26T10:59:05.574Z,8.86
2022-11-26T11:01:36.999Z,8.95
2022-11-26T11:04:22.662Z,9.05
2022-11-26T11:06:49.264Z,9.09
2022-11-26T11:09:28.541Z,9.18
2022-11-26T11:12:13.571Z,9.16
2022-11-26T11:14:43.052Z,9.10
2022-11-26T11:17:28.367Z,9.04
2022-11-26T11:19:57.530Z,9.06
2022-11-26T11:22:24.068Z,9.13
2022-11-26T11:24:50.653Z,9.21
2022-11-26T11:27:27.046Z,9.17
2022-11-26T11:29:53.505Z,9.15
2022-11-26T11:32:40.080Z,9.20
2022-11-26T11:35:32.679Z,9.22
2022-11-26T11:37:59.410Z,9.14
2022-11-26T11:40:29.152Z,8.95
2022-11-26T11:43:04.096Z,9.15
2022-11-26T11:45:37.139Z,9.05
2022-11-26T11:48:29.778Z,9.05
2022-11-26T11:51:17.618Z,9.02
2022-11-26T11:54:11.878Z,9.06
2022-11-26T11:56:46.389Z,8.97
2022-11-26T12:00:12.504Z,9.00
2022-11-26T12:02:57.479Z,8.88
2022-11-26T12:05:47.583Z,9.08
2022-11-26T12:08:44.430Z,9.11
2022-11-26T12:11:34.691Z,9.18
2022-11-26T12:14:07.686Z,9.12
2022-11-26T12:16:38.689Z,9.17
2022-11-26T12:19:25.538Z,9.12
2022-11-26T12:21:58.904Z,9.15
2022-11-26T12:24:44.546Z,9.22
2022-11-26T12:27:38.930Z,9.13
2022-11-26T12:30:14.078Z,9.20
2022-11-26T12:32:48.210Z,9.26
2022-11-26T12:35:32.611Z,9.26
2022-11-26T12:38:08.925Z,9.07
2022-11-26T12:40:45.836Z,9.14
2022-11-26T12:43:18.952Z,9.14
2022-11-26T12:45:51.221Z,9.21
2022-11-26T12:48:27.857Z,9.22
2022-11-26T12:51:04.169Z,9.15
2022-11-26T12:53:53.998Z,9.13
2022-11-26T12:56:42.953Z,9.20
2022-11-26T12:59:50.198Z,9.09
2022-11-26T13:02:22.700Z,9.06
2022-11-26T13:04:50.282Z,9.08
2022-11-26T13:07:48.305Z,9.00
2022-11-26T13:10:51.003Z,9.06
2022-11-26T13:13:48.238Z,9.06
2022-11-26T13:16:26.659Z,9.04
2022-11-26T13:19:06.437Z,9.09
2022-11-26T13:21:44.888Z,9.20
2022-11-26T13:24:51.366Z,9.11
2022-11-26T13:27:41.466Z,9.23
2022-11-26T13:30:24.746Z,9.16
2022-11-26T13:33:20.470Z,9.19
2022-11-26T13:36:12.099Z,8.94
2022-11-26T13:39:19.858Z,9.03
2022-11-26T13:42:07.842Z,9.11
2022-11-26T13:45:02.862Z,8.87
2022-11-26T13:47:40.866Z,8.86
2022-11-26T13:50:23.647Z,8.88
2022-11-26T13:53:06.059Z,8.86
2022-11-26T13:55:50.694Z,8.85
2022-11-26T13:58:25.418Z,8.82
2022-11-26T14:00:51.931Z,8.82
2022-11-26T14:03:48.211Z,8.91
2022-11-26T14:06:15.551Z,8.92
2022-11-26T14:08:47.280Z,8.91
2022-11-26T14:11:45.626Z,9.12
2022-11-26T14:14:30.542Z,9.01
2022-11-26T14:17:15.792Z,8.97
2022-11-26T14:19:45.272Z,8.74
2022-11-26T14:22:11.644Z,8.76
2022-11-26T14:24:50.272Z,8.91
2022-11-26T14:27:39.590Z,8.84
2022-11-26T14:30:05.923Z,8.87
2022-11-26T14:32:56.038Z,8.96
2022-11-26T14:35:33.905Z,8.98
2022-11-26T14:38:02.486Z,8.99
2022-11-26T14:40:34.986Z,9.04
2022-11-26T14:43:15.794Z,9.10
2022-11-26T14:45:44.731Z,9.03
2022-11-26T14:48:26.050Z,9.04
2022-11-26T14:50:54.192Z,9.05
2022-11-26T14:53:23.620Z,9.08
2022-11-26T14:55:50.726Z,9.03
2022-11-26T14:58:33.598Z,9.06
2022-11-26T15:01:15.100Z,9.09
2022-11-26T15:03:42.576Z,9.14
2022-11-26T15:06:24.378Z,9.00
2022-11-26T15:08:50.771Z,8.92
2022-11-26T15:11:21.334Z,8.89
2022-11-26T15:13:48.088Z,8.95
2022-11-26T15:16:37.945Z,8.98
2022-11-26T15:19:05.742Z,8.99
2022-11-26T15:21:33.565Z,8.99
2022-11-26T15:24:07.008Z,9.01
2022-11-26T15:26:35.684Z,9.04
2022-11-26T15:29:03.260Z,9.07
2022-11-26T15:31:40.706Z,9.07
2022-11-26T15:34:12.220Z,9.06
2022-11-26T15:36:38.933Z,9.03
2022-11-26T15:39:07.801Z,9.01
2022-11-26T15:41:42.664Z,9.01
2022-11-26T15:44:27.861Z,9.04
2022-11-26T15:46:57.154Z,9.02
2022-11-26T15:49:28.736Z,9.06
2022-11-26T15:51:59.939Z,9.06
2022-11-26T15:54:49.540Z,9.07
2022-11-26T15:57:38.210Z,9.08
2022-11-26T16:00:27.628Z,9.07
2022-11-26T16:02:54.344Z,9.03
2022-11-26T16:05:32.944Z,9.02
2022-11-26T16:08:05.435Z,9.06
2022-11-26T16:10:36.792Z,9.16
2022-11-26T16:13:15.058Z,9.10
2022-11-26T16:15:56.542Z,9.06
2022-11-26T16:18:28.188Z,9.05
2022-11-26T16:21:03.323Z,9.01
2022-11-26T16:23:30.361Z,9.01
2022-11-26T16:26:17.574Z,8.95
2022-11-26T16:28:45.898Z,8.94
2022-11-26T16:31:13.615Z,8.98
2022-11-26T16:33:40.562Z,8.99
2022-11-26T16:36:28.555Z,9.00
2022-11-26T16:38:54.981Z,8.98
2022-11-26T16:41:22.484Z,9.02
2022-11-26T16:43:49.567Z,9.01
2022-11-26T16:46:20.024Z,9.01
2022-11-26T16:48:47.158Z,9.02
2022-11-26T16:51:13.544Z,9.02
2022-11-26T16:53:39.949Z,9.04
2022-11-26T16:56:10.801Z,9.02
2022-11-26T16:58:37.867Z,9.04
2022-11-26T17:01:04.415Z,9.05
2022-11-26T17:03:33.264Z,9.04
2022-11-26T17:06:12.196Z,9.13
2022-11-26T17:08:38.646Z,9.03
2022-11-26T17:11:05.076Z,9.03
2022-11-26T17:13:31.523Z,9.11
2022-11-26T17:15:58.149Z,9.19
2022-11-26T17:18:26.056Z,9.13
2022-11-26T17:20:53.678Z,9.12
2022-11-26T17:23:20.411Z,9.14
2022-11-26T17:25:51.812Z,9.16
2022-11-26T17:28:18.207Z,9.07
2022-11-26T17:30:44.989Z,9.13
2022-11-26T17:33:11.871Z,9.06
2022-11-26T17:35:38.418Z,9.09
2022-11-26T17:38:13.520Z,9.20
2022-11-26T17:40:39.950Z,9.10
2022-11-26T17:43:06.370Z,9.11
2022-11-26T17:45:32.772Z,9.09
2022-11-26T17:47:59.157Z,9.08
2022-11-26T17:50:27.300Z,9.13
2022-11-26T17:52:54.717Z,9.14
2022-11-26T17:55:23.035Z,9.14
2022-11-26T17:57:49.602Z,9.09
2022-11-26T18:00:20.339Z,9.05
2022-11-26T18:02:46.796Z,9.13
2022-11-26T18:05:13.602Z,9.07
2022-11-26T18:07:40.691Z,9.14
2022-11-26T18:10:11.019Z,9.14
2022-11-26T18:12:38.535Z,9.16
2022-11-26T18:15:05.606Z,9.06
2022-11-26T18:17:32.032Z,9.05
2022-11-26T18:19:58.410Z,9.03
2022-11-26T18:22:26.204Z,9.02
2022-11-26T18:24:56.332Z,9.05
2022-11-26T18:27:26.606Z,9.02
2022-11-26T18:29:53.022Z,8.98
2022-11-26T18:32:20.010Z,8.97
2022-11-26T18:34:48.914Z,9.01
2022-11-26T18:37:15.597Z,9.09
2022-11-26T18:39:42.236Z,9.09
2022-11-26T18:42:36.087Z,9.13
2022-11-26T18:44:55.106Z,9.10
2022-11-26T18:47:21.492Z,9.07
2022-11-26T18:49:48.239Z,9.17
2022-11-26T18:52:14.827Z,9.09
2022-11-26T18:54:41.241Z,9.11
2022-11-26T18:57:07.637Z,9.06
2022-11-26T18:59:34.978Z,9.08
2022-11-26T19:02:01.468Z,9.04
2022-11-26T19:04:27.934Z,9.03
2022-11-26T19:06:54.335Z,9.02
2022-11-26T19:09:20.924Z,9.04
2022-11-26T19:11:48.326Z,9.09
2022-11-26T19:14:15.938Z,9.03
2022-11-26T19:16:43.287Z,9.01
2022-11-26T19:19:10.104Z,9.02
2022-11-26T19:21:36.839Z,9.05
2022-11-26T19:24:05.909Z,9.06
2022-11-26T19:26:32.305Z,9.07
2022-11-26T19:29:04.945Z,9.16
2022-11-26T19:31:35.830Z,9.14
2022-11-26T19:34:06.030Z,9.07
2022-11-26T19:36:33.475Z,9.06
2022-11-26T19:39:01.075Z,9.07
2022-11-26T19:41:28.855Z,9.01
2022-11-26T19:43:55.321Z,8.99
2022-11-26T19:46:24.494Z,9.03
2022-11-26T19:48:52.031Z,9.09
2022-11-26T19:51:20.326Z,9.04
2022-11-26T19:53:48.940Z,9.07
2022-11-26T19:56:21.330Z,9.05
2022-11-26T19:58:47.974Z,9.09
2022-11-26T20:01:16.515Z,9.02
2022-11-26T20:03:44.150Z,9.21
2022-11-26T20:06:14.819Z,9.18
2022-11-26T20:08:41.278Z,9.14
2022-11-26T20:11:08.958Z,9.06
2022-11-26T20:13:36.706Z,9.09
2022-11-26T20:16:07.563Z,9.03
2022-11-26T20:18:36.250Z,9.03
2022-11-26T20:21:05.465Z,9.03
2022-11-26T20:23:31.861Z,9.12
2022-11-26T20:25:58.303Z,9.08
2022-11-26T20:28:25.939Z,9.04
2022-11-26T20:30:52.582Z,9.02
2022-11-26T20:33:19.479Z,9.05
2022-11-26T20:35:46.038Z,9.16
2022-11-26T20:38:13.004Z,9.19
2022-11-26T20:40:42.198Z,9.13
2022-11-26T20:43:09.813Z,9.16
2022-11-26T20:45:36.834Z,9.09
2022-11-26T20:48:04.139Z,9.21
2022-11-26T20:50:30.792Z,9.10
2022-11-26T20:52:57.427Z,9.15
2022-11-26T20:55:25.061Z,9.15
2022-11-26T20:57:51.730Z,9.08
2022-11-26T21:00:20.451Z,9.06
2022-11-26T21:02:50.327Z,9.04
2022-11-26T21:05:16.977Z,9.05
2022-11-26T21:07:43.493Z,9.03
2022-11-26T21:10:10.693Z,8.99
2022-11-26T21:12:37.433Z,8.99
2022-11-26T21:15:05.153Z,8.99
2022-11-26T21:17:31.585Z,9.00
2022-11-26T21:19:58.004Z,8.99
2022-11-26T21:22:24.571Z,9.00
2022-11-26T21:24:50.957Z,9.00
2022-11-26T21:27:17.362Z,9.00
2022-11-26T21:29:46.095Z,9.01
2022-11-26T21:32:12.483Z,9.03
2022-11-26T21:34:38.861Z,9.04
2022-11-26T21:37:05.329Z,9.13
2022-11-26T21:39:31.948Z,9.17
2022-11-26T21:41:58.337Z,9.26
2022-11-26T21:44:24.723Z,9.15
2022-11-26T21:46:51.200Z,9.04
2022-11-26T21:49:17.658Z,9.09
2022-11-26T21:51:44.062Z,9.06
2022-11-26T21:54:10.558Z,8.98
2022-11-26T21:56:37.076Z,9.12
2022-11-26T21:59:03.644Z,9.07
2022-11-26T22:01:32.827Z,9.07
2022-11-26T22:04:02.449Z,9.06
2022-11-26T22:06:29.346Z,9.02
2022-11-26T22:08:56.252Z,9.01
2022-11-26T22:11:28.456Z,9.06
2022-11-26T22:13:55.702Z,8.94
2022-11-26T22:16:23.848Z,9.08
2022-11-26T22:18:50.784Z,9.11
2022-11-26T22:21:26.210Z,9.06
2022-11-26T22:23:53.040Z,9.00
2022-11-26T22:26:20.278Z,8.99
2022-11-26T22:28:47.372Z,8.99
2022-11-26T22:31:22.558Z,8.95
2022-11-26T22:33:53.098Z,8.91
2022-11-26T22:36:19.531Z,8.90
2022-11-26T22:38:45.984Z,8.90
2022-11-26T22:41:13.918Z,8.91
2022-11-26T22:43:41.137Z,8.89
2022-11-26T22:46:11.141Z,8.91
2022-11-26T22:48:37.872Z,8.97
2022-11-26T22:51:04.446Z,9.08
2022-11-26T22:53:33.226Z,9.01
2022-11-26T22:56:01.931Z,9.05
2022-11-26T22:58:29.466Z,8.94
2022-11-26T23:01:01.801Z,8.91
2022-11-26T23:03:30.070Z,8.86
2022-11-26T23:05:56.493Z,8.82
2022-11-26T23:08:22.885Z,8.82
2022-11-26T23:10:49.422Z,8.78
2022-11-26T23:13:16.273Z,8.75
2022-11-26T23:15:45.217Z,8.74
2022-11-26T23:18:13.886Z,8.73
2022-11-26T23:20:41.455Z,8.76
2022-11-26T23:23:08.112Z,8.70
2022-11-26T23:25:38.928Z,8.74
2022-11-26T23:28:06.545Z,8.71
2022-11-26T23:30:33.300Z,8.68
2022-11-26T23:32:59.667Z,8.66
2022-11-26T23:35:26.063Z,8.65
2022-11-26T23:37:52.436Z,8.61
2022-11-26T23:40:18.858Z,8.58
2022-11-26T23:42:45.242Z,8.74
2022-11-26T23:45:11.640Z,8.64
2022-11-26T23:47:39.777Z,8.52
2022-11-26T23:50:07.014Z,8.47
2022-11-26T23:52:34.098Z,8.34
2022-11-26T23:55:00.485Z,8.45
2022-11-26T23:57:26.876Z,8.39
2022-11-26T23:59:53.266Z,8.35
